createdAt,value
2022-09-10T00:00:33.688Z,50.866776
2022-09-10T00:01:33.739Z,50.866825
2022-09-10T00:02:33.771Z,50.866783
2022-09-10T00:03:33.661Z,50.866737
2022-09-10T00:04:33.666Z,50.866730
2022-09-10T00:05:33.643Z,50.866768
2022-09-10T00:06:33.635Z,50.866749
2022-09-10T00:07:33.632Z,50.866764
2022-09-10T00:08:33.731Z,50.866791
2022-09-10T00:09:33.634Z,50.866718
2022-09-10T00:10:33.616Z,50.866833
2022-09-10T00:11:33.596Z,50.866802
2022-09-10T00:12:33.618Z,50.866856
2022-09-10T00:13:33.585Z,50.866852
2022-09-10T00:14:33.618Z,50.866802
2022-09-10T00:15:33.592Z,50.866779
2022-09-10T00:16:33.596Z,50.866737
2022-09-10T00:17:33.556Z,50.866760
2022-09-10T00:18:33.547Z,50.866772
2022-09-10T00:19:33.540Z,50.866787
2022-09-10T00:20:33.528Z,50.866764
2022-09-10T00:21:33.530Z,50.866779
2022-09-10T00:22:33.513Z,50.866764
2022-09-10T00:23:33.508Z,50.866776
2022-09-10T00:24:33.501Z,50.866737
2022-09-10T00:25:33.490Z,50.866772
2022-09-10T00:26:33.826Z,50.866737
2022-09-10T00:27:33.471Z,50.866764
2022-09-10T00:28:33.504Z,50.866776
2022-09-10T00:29:33.459Z,50.866802
2022-09-10T00:34:34.656Z,50.867310
2022-09-10T00:35:34.652Z,50.866829
2022-09-10T00:36:34.684Z,50.866722
2022-09-10T00:37:34.631Z,50.866650
2022-09-10T00:38:34.674Z,50.866631
2022-09-10T00:39:34.676Z,50.866627
2022-09-10T00:40:35.526Z,50.866608
2022-09-10T00:41:34.596Z,50.866531
2022-09-10T00:42:34.589Z,50.866589
2022-09-10T00:43:34.581Z,50.866634
2022-09-10T00:44:35.709Z,50.866611
2022-09-10T00:45:35.632Z,50.866661
2022-09-10T00:46:34.591Z,50.866665
2022-09-10T00:47:34.559Z,50.866665
2022-09-10T00:48:34.576Z,50.866718
2022-09-10T00:49:34.543Z,50.866684
2022-09-10T00:50:34.518Z,50.866699
2022-09-10T00:51:34.514Z,50.866692
2022-09-10T00:52:39.447Z,50.866676
2022-09-10T00:53:36.504Z,50.866707
2022-09-10T00:54:34.486Z,50.866638
2022-09-10T00:55:34.478Z,50.866665
2022-09-10T00:56:34.484Z,50.866707
2022-09-10T00:57:34.476Z,50.866718
2022-09-10T00:58:34.539Z,50.866730
2022-09-10T00:59:34.461Z,50.866734
2022-09-10T01:00:34.490Z,50.866707
2022-09-10T01:01:34.550Z,50.866684
2022-09-10T01:02:34.434Z,50.866718
2022-09-10T01:03:34.421Z,50.866760
2022-09-10T01:04:34.410Z,50.866741
2022-09-10T01:05:34.409Z,50.866814
2022-09-10T01:06:34.401Z,50.866730
2022-09-10T01:07:34.399Z,50.866718
2022-09-10T01:08:34.454Z,50.866665
2022-09-10T01:09:34.375Z,50.866779
2022-09-10T01:10:34.373Z,50.866753
2022-09-10T01:11:34.944Z,50.866943
2022-09-10T01:12:36.104Z,50.866867
2022-09-10T01:13:35.356Z,50.866848
2022-09-10T01:14:34.339Z,50.866844
2022-09-10T01:15:34.332Z,50.866779
2022-09-10T01:16:34.400Z,50.866764
2022-09-10T01:17:34.369Z,50.866695
2022-09-10T01:18:34.412Z,50.866676
2022-09-10T01:19:34.310Z,50.866650
2022-09-10T01:20:34.346Z,50.866695
2022-09-10T01:21:35.031Z,50.866722
2022-09-10T01:22:35.272Z,50.866753
2022-09-10T01:23:34.272Z,50.866737
2022-09-10T01:24:34.262Z,50.866753
2022-09-10T01:25:34.241Z,50.866745
2022-09-10T01:26:35.239Z,50.866756
2022-09-10T01:27:34.231Z,50.866722
2022-09-10T01:28:34.272Z,50.866726
2022-09-10T01:29:34.232Z,50.866726
2022-09-10T01:30:34.210Z,50.866718
2022-09-10T01:31:34.289Z,50.866718
2022-09-10T01:32:34.195Z,50.866703
2022-09-10T01:33:34.197Z,50.866756
2022-09-10T01:34:34.175Z,50.866749
2022-09-10T01:35:34.175Z,50.866741
2022-09-10T01:36:34.162Z,50.866711
2022-09-10T01:37:34.162Z,50.866699
2022-09-10T01:38:34.266Z,50.866734
2022-09-10T01:39:34.230Z,50.866817
2022-09-10T01:40:34.124Z,50.866806
2022-09-10T01:41:34.118Z,50.866837
2022-09-10T01:42:34.109Z,50.866806
2022-09-10T01:43:34.111Z,50.866798
2022-09-10T01:44:34.101Z,50.866745
2022-09-10T01:45:34.144Z,50.866749
2022-09-10T01:46:34.083Z,50.866749
2022-09-10T01:47:34.072Z,50.866756
2022-09-10T01:48:34.064Z,50.866745
2022-09-10T01:49:34.059Z,50.866783
2022-09-10T01:50:34.061Z,50.866783
2022-09-10T01:51:34.034Z,50.866791
2022-09-10T01:52:34.037Z,50.866707
2022-09-10T01:53:34.026Z,50.866734
2022-09-10T01:54:34.029Z,50.866718
2022-09-10T01:55:34.004Z,50.866756
2022-09-10T01:56:34.001Z,50.866722
2022-09-10T01:57:33.989Z,50.866726
2022-09-10T01:58:33.982Z,50.866776
2022-09-10T01:59:33.978Z,50.866810
2022-09-10T02:00:33.975Z,50.866814
2022-09-10T02:01:33.974Z,50.866833
2022-09-10T02:02:33.948Z,50.866787
2022-09-10T02:03:33.941Z,50.866806
2022-09-10T02:04:33.941Z,50.866791
2022-09-10T02:05:33.928Z,50.866783
2022-09-10T02:06:33.924Z,50.866756
2022-09-10T02:07:33.908Z,50.866821
2022-09-10T02:08:33.910Z,50.866833
2022-09-10T02:09:33.903Z,50.866795
2022-09-10T02:10:33.896Z,50.866833
2022-09-10T02:11:33.885Z,50.866821
2022-09-10T02:12:33.870Z,50.866882
2022-09-10T02:13:33.871Z,50.866737
2022-09-10T02:14:33.857Z,50.866840
2022-09-10T02:15:33.860Z,50.866783
2022-09-10T02:16:34.058Z,50.866840
2022-09-10T02:17:33.831Z,50.866962
2022-09-10T02:18:33.841Z,50.866825
2022-09-10T02:19:33.816Z,50.866737
2022-09-10T02:20:33.819Z,50.866833
2022-09-10T02:21:33.808Z,50.866833
2022-09-10T02:22:33.834Z,50.866741
2022-09-10T02:23:33.785Z,50.866745
2022-09-10T02:24:33.785Z,50.866714
2022-09-10T02:25:33.776Z,50.866745
2022-09-10T02:26:33.772Z,50.866764
2022-09-10T02:27:33.761Z,50.866829
2022-09-10T02:28:33.758Z,50.866779
2022-09-10T02:29:33.744Z,50.866829
2022-09-10T02:30:33.736Z,50.866753
2022-09-10T02:31:33.762Z,50.866684
2022-09-10T02:32:33.731Z,50.866707
2022-09-10T02:33:33.715Z,50.866726
2022-09-10T02:34:34.564Z,50.866734
2022-09-10T02:35:33.701Z,50.866646
2022-09-10T02:36:33.704Z,50.866760
2022-09-10T02:37:34.479Z,50.866776
2022-09-10T02:38:33.677Z,50.866787
2022-09-10T02:39:33.694Z,50.866764
2022-09-10T02:40:33.648Z,50.866741
2022-09-10T02:41:33.669Z,50.866722
2022-09-10T02:42:33.636Z,50.866783
2022-09-10T02:43:34.556Z,50.866852
2022-09-10T02:44:33.621Z,50.866928
2022-09-10T02:45:33.665Z,50.866909
2022-09-10T02:46:33.604Z,50.866840
2022-09-10T02:47:33.601Z,50.866978
2022-09-10T02:48:33.590Z,50.866859
2022-09-10T02:49:33.584Z,50.866798
2022-09-10T02:50:33.581Z,50.866795
2022-09-10T02:51:33.570Z,50.866558
2022-09-10T02:52:33.557Z,50.866802
2022-09-10T02:53:33.545Z,50.866913
2022-09-10T02:54:33.538Z,50.866718
2022-09-10T02:55:33.529Z,50.866886
2022-09-10T02:56:33.531Z,50.866989
2022-09-10T02:57:33.528Z,50.867035
2022-09-10T02:58:33.513Z,50.866997
2022-09-10T02:59:33.501Z,50.866913
2022-09-10T03:00:33.494Z,50.866821
2022-09-10T03:01:33.486Z,50.866875
2022-09-10T03:02:33.492Z,50.866875
2022-09-10T03:03:33.475Z,50.866806
2022-09-10T03:04:33.462Z,50.867031
2022-09-10T03:05:33.490Z,50.867191
2022-09-10T03:06:33.449Z,50.867214
2022-09-10T03:07:33.445Z,50.867008
2022-09-10T03:08:33.430Z,50.867004
2022-09-10T03:09:33.426Z,50.867115
2022-09-10T03:10:33.423Z,50.867058
2022-09-10T03:11:33.408Z,50.866695
2022-09-10T03:12:33.400Z,50.866802
2022-09-10T03:13:33.400Z,50.866776
2022-09-10T03:14:33.378Z,50.866783
2022-09-10T03:15:33.373Z,50.866821
2022-09-10T03:16:33.426Z,50.866764
2022-09-10T03:17:33.355Z,50.866802
2022-09-10T03:18:33.357Z,50.866867
2022-09-10T03:19:33.336Z,50.867016
2022-09-10T03:20:33.332Z,50.867092
2022-09-10T03:21:33.324Z,50.866974
2022-09-10T03:22:33.319Z,50.867180
2022-09-10T03:23:33.312Z,50.867271
2022-09-10T03:24:33.304Z,50.867413
2022-09-10T03:25:33.298Z,50.867363
2022-09-10T03:26:33.286Z,50.867226
2022-09-10T03:27:33.272Z,50.867001
2022-09-10T03:28:33.275Z,50.866978
2022-09-10T03:29:33.260Z,50.866699
2022-09-10T03:30:33.250Z,50.866714
2022-09-10T03:31:33.271Z,50.866650
2022-09-10T03:32:33.235Z,50.866680
2022-09-10T03:33:33.235Z,50.866737
2022-09-10T03:34:33.221Z,50.866711
2022-09-10T03:35:33.206Z,50.866821
2022-09-10T03:36:33.200Z,50.866768
2022-09-10T03:37:33.190Z,50.866821
2022-09-10T03:38:33.184Z,50.866867
2022-09-10T03:39:33.232Z,50.867046
2022-09-10T03:40:33.167Z,50.866882
2022-09-10T03:41:33.165Z,50.866814
2022-09-10T03:42:33.149Z,50.866810
2022-09-10T03:43:33.147Z,50.866974
2022-09-10T03:44:33.138Z,50.866932
2022-09-10T03:45:33.209Z,50.867001
2022-09-10T03:46:33.135Z,50.867100
2022-09-10T03:47:33.111Z,50.866928
2022-09-10T03:48:33.102Z,50.866673
2022-09-10T03:49:33.091Z,50.866947
2022-09-10T03:50:33.101Z,50.866886
2022-09-10T03:51:33.083Z,50.866619
2022-09-10T03:52:33.074Z,50.866806
2022-09-10T03:53:33.059Z,50.866898
2022-09-10T03:54:33.058Z,50.866917
2022-09-10T03:55:33.081Z,50.866882
2022-09-10T03:56:33.045Z,50.866852
2022-09-10T03:57:33.038Z,50.866859
2022-09-10T03:58:33.026Z,50.866829
2022-09-10T03:59:33.014Z,50.866829
2022-09-10T04:00:33.007Z,50.866821
2022-09-10T04:01:33.003Z,50.866852
2022-09-10T04:02:33.000Z,50.866856
2022-09-10T04:03:32.990Z,50.866817
2022-09-10T04:04:32.976Z,50.866791
2022-09-10T04:05:32.967Z,50.866814
2022-09-10T04:06:32.958Z,50.866817
2022-09-10T04:07:32.950Z,50.866806
2022-09-10T04:08:32.958Z,50.866791
2022-09-10T04:09:32.931Z,50.866806
2022-09-10T04:10:32.925Z,50.866859
2022-09-10T04:11:32.916Z,50.866898
2022-09-10T04:12:32.919Z,50.866947
2022-09-10T04:13:33.583Z,50.866982
2022-09-10T04:14:33.898Z,50.866936
2022-09-10T04:15:32.883Z,50.866943
2022-09-10T04:16:32.886Z,50.866905
2022-09-10T04:17:32.869Z,50.866886
2022-09-10T04:18:32.896Z,50.866928
2022-09-10T04:19:32.852Z,50.866859
2022-09-10T04:20:32.845Z,50.866825
2022-09-10T04:21:32.835Z,50.866764
2022-09-10T04:22:32.831Z,50.866825
2022-09-10T04:23:32.837Z,50.866867
2022-09-10T04:24:32.813Z,50.866940
2022-09-10T04:25:32.798Z,50.866928
2022-09-10T04:26:32.795Z,50.866894
2022-09-10T04:27:32.781Z,50.866890
2022-09-10T04:28:32.798Z,50.866879
2022-09-10T04:29:32.779Z,50.866871
2022-09-10T04:30:32.768Z,50.866833
2022-09-10T04:31:32.788Z,50.866737
2022-09-10T04:32:32.749Z,50.866783
2022-09-10T04:33:32.739Z,50.866783
2022-09-10T04:34:32.737Z,50.866753
2022-09-10T04:35:32.721Z,50.866737
2022-09-10T04:36:32.719Z,50.866745
2022-09-10T04:37:32.724Z,50.866814
2022-09-10T04:38:32.703Z,50.866764
2022-09-10T04:39:32.737Z,50.866783
2022-09-10T04:40:32.695Z,50.866772
2022-09-10T04:41:33.602Z,50.866791
2022-09-10T04:42:32.673Z,50.866791
2022-09-10T04:43:32.664Z,50.866783
2022-09-10T04:44:32.653Z,50.866730
2022-09-10T04:45:32.683Z,50.866776
2022-09-10T04:46:32.636Z,50.866749
2022-09-10T04:47:32.639Z,50.866745
2022-09-10T04:48:32.646Z,50.866833
2022-09-10T04:49:32.616Z,50.866821
2022-09-10T04:50:32.608Z,50.866726
2022-09-10T04:51:32.595Z,50.866779
2022-09-10T04:52:32.586Z,50.866783
2022-09-10T04:53:32.600Z,50.866760
2022-09-10T04:54:32.573Z,50.866760
2022-09-10T04:55:32.564Z,50.866726
2022-09-10T04:56:32.556Z,50.866638
2022-09-10T04:57:32.552Z,50.866726
2022-09-10T04:58:36.654Z,50.866749
2022-09-10T04:59:34.541Z,50.866810
2022-09-10T05:00:32.530Z,50.866787
2022-09-10T05:01:32.523Z,50.866779
2022-09-10T05:02:32.549Z,50.866791
2022-09-10T05:03:32.519Z,50.866718
2022-09-10T05:04:34.023Z,50.866653
2022-09-10T05:05:32.491Z,50.866737
2022-09-10T05:06:32.478Z,50.866661
2022-09-10T05:07:32.504Z,50.866688
2022-09-10T05:08:32.464Z,50.866714
2022-09-10T05:09:32.459Z,50.866734
2022-09-10T05:10:32.445Z,50.866756
2022-09-10T05:11:32.462Z,50.866745
2022-09-10T05:12:32.430Z,50.866829
2022-09-10T05:13:32.423Z,50.866856
2022-09-10T05:14:32.427Z,50.866821
2022-09-10T05:15:32.407Z,50.866814
2022-09-10T05:16:32.432Z,50.866787
2022-09-10T05:17:32.387Z,50.866821
2022-09-10T05:18:32.381Z,50.866829
2022-09-10T05:19:32.388Z,50.866810
2022-09-10T05:20:32.364Z,50.866711
2022-09-10T05:21:32.366Z,50.866711
2022-09-10T05:22:38.432Z,50.866787
2022-09-10T05:23:34.361Z,50.866856
2022-09-10T05:24:32.334Z,50.866798
2022-09-10T05:25:32.330Z,50.866764
2022-09-10T05:26:32.319Z,50.866711
2022-09-10T05:27:32.308Z,50.866695
2022-09-10T05:28:32.302Z,50.866684
2022-09-10T05:29:32.293Z,50.866856
2022-09-10T05:30:32.288Z,50.866962
2022-09-10T05:31:32.290Z,50.866737
2022-09-10T05:32:32.259Z,50.866669
2022-09-10T05:33:33.254Z,50.866650
2022-09-10T05:34:32.254Z,50.866673
2022-09-10T05:35:32.251Z,50.866684
2022-09-10T05:36:32.233Z,50.866650
2022-09-10T05:37:32.224Z,50.866650
2022-09-10T05:38:32.214Z,50.866673
2022-09-10T05:39:32.342Z,50.866669
2022-09-10T05:40:32.207Z,50.866676
2022-09-10T05:41:32.190Z,50.866692
2022-09-10T05:42:32.181Z,50.866726
2022-09-10T05:43:32.176Z,50.866673
2022-09-10T05:44:32.167Z,50.866787
2022-09-10T05:45:32.193Z,50.866673
2022-09-10T05:46:32.151Z,50.866566
2022-09-10T05:47:32.144Z,50.866505
2022-09-10T05:48:32.174Z,50.866486
2022-09-10T05:49:32.129Z,50.866650
2022-09-10T05:50:32.129Z,50.866692
2022-09-10T05:51:32.119Z,50.866688
2022-09-10T05:52:32.103Z,50.866627
2022-09-10T05:53:32.110Z,50.866627
2022-09-10T05:54:32.088Z,50.866623
2022-09-10T05:55:32.078Z,50.866608
2022-09-10T05:56:32.079Z,50.866615
2022-09-10T05:57:32.064Z,50.866615
2022-09-10T05:58:32.092Z,50.866627
2022-09-10T05:59:32.050Z,50.866573
2022-09-10T06:00:32.043Z,50.866550
2022-09-10T06:01:32.054Z,50.866581
2022-09-10T06:02:32.067Z,50.866554
2022-09-10T06:03:32.023Z,50.866547
2022-09-10T06:04:32.015Z,50.866589
2022-09-10T06:05:32.005Z,50.866585
2022-09-10T06:06:31.994Z,50.866566
2022-09-10T06:07:31.988Z,50.866577
2022-09-10T06:08:32.037Z,50.866600
2022-09-10T06:09:31.975Z,50.866608
2022-09-10T06:10:32.006Z,50.866653
2022-09-10T06:11:31.948Z,50.866680
2022-09-10T06:12:32.949Z,50.866665
2022-09-10T06:13:32.550Z,50.866611
2022-09-10T06:14:31.931Z,50.866615
2022-09-10T06:15:31.926Z,50.866661
2022-09-10T06:16:31.943Z,50.866653
2022-09-10T06:17:31.908Z,50.866638
2022-09-10T06:18:31.908Z,50.866623
2022-09-10T06:19:31.899Z,50.866848
2022-09-10T06:20:31.885Z,50.866615
2022-09-10T06:21:31.876Z,50.866581
2022-09-10T06:22:31.871Z,50.866611
2022-09-10T06:23:31.922Z,50.866631
2022-09-10T06:24:31.857Z,50.866676
2022-09-10T06:25:31.846Z,50.866692
2022-09-10T06:26:31.839Z,50.866634
2022-09-10T06:27:31.966Z,50.866638
2022-09-10T06:28:31.855Z,50.866734
2022-09-10T06:29:31.822Z,50.866676
2022-09-10T06:30:31.834Z,50.866768
2022-09-10T06:31:31.801Z,50.866692
2022-09-10T06:32:31.785Z,50.866673
2022-09-10T06:33:31.785Z,50.866661
2022-09-10T06:34:31.771Z,50.866661
2022-09-10T06:35:31.765Z,50.866726
2022-09-10T06:36:31.752Z,50.866707
2022-09-10T06:37:31.835Z,50.866669
2022-09-10T06:38:31.797Z,50.866653
2022-09-10T06:39:31.734Z,50.866650
2022-09-10T06:40:32.157Z,50.866543
2022-09-10T06:41:31.721Z,50.866432
2022-09-10T06:42:31.740Z,50.866165
2022-09-10T06:43:31.762Z,50.866013
2022-09-10T06:44:31.695Z,50.866146
2022-09-10T06:45:31.712Z,50.866005
2022-09-10T06:47:10.727Z,50.865929
2022-09-10T06:48:38.604Z,50.865917
2022-09-10T06:49:33.657Z,50.865974
2022-09-10T06:50:31.659Z,50.865955
2022-09-10T06:51:31.642Z,50.865952
2022-09-10T06:52:31.637Z,50.865917
2022-09-10T06:53:31.628Z,50.865833
2022-09-10T06:54:31.614Z,50.865822
2022-09-10T06:55:31.625Z,50.865799
2022-09-10T06:56:31.595Z,50.865925
2022-09-10T06:57:31.594Z,50.865833
2022-09-10T06:58:31.685Z,50.865822
2022-09-10T06:59:31.581Z,50.865868
2022-09-10T07:00:31.564Z,50.865841
2022-09-10T07:01:31.646Z,50.866020
2022-09-10T07:02:32.120Z,50.865921
2022-09-10T07:03:31.554Z,50.865833
2022-09-10T07:04:31.550Z,50.865768
2022-09-10T07:05:31.533Z,50.865829
2022-09-10T07:06:31.535Z,50.865753
2022-09-10T07:07:31.511Z,50.865734
2022-09-10T07:08:31.524Z,50.865639
2022-09-10T07:09:31.495Z,50.865608
2022-09-10T07:10:31.502Z,50.865532
2022-09-10T07:11:31.491Z,50.865532
2022-09-10T07:12:31.474Z,50.866386
2022-09-10T07:13:31.460Z,50.866661
2022-09-10T07:14:32.456Z,50.866764
2022-09-10T07:15:31.483Z,50.866692
2022-09-10T07:16:31.467Z,50.866776
2022-09-10T07:17:32.152Z,50.866749
2022-09-10T07:18:32.423Z,50.866772
2022-09-10T07:19:31.421Z,50.866730
2022-09-10T07:20:31.410Z,50.866875
2022-09-10T07:21:31.406Z,50.866817
2022-09-10T07:22:31.392Z,50.866657
2022-09-10T07:23:31.382Z,50.866791
2022-09-10T07:24:31.376Z,50.866783
2022-09-10T07:25:31.372Z,50.866837
2022-09-10T07:26:31.372Z,50.866959
2022-09-10T07:27:31.355Z,50.866882
2022-09-10T07:28:31.385Z,50.866821
2022-09-10T07:29:31.439Z,50.866844
2022-09-10T07:30:31.341Z,50.866859
2022-09-10T07:31:31.330Z,50.866913
2022-09-10T07:32:31.311Z,50.866795
2022-09-10T07:33:31.301Z,50.866829
2022-09-10T07:34:31.299Z,50.866768
2022-09-10T07:35:31.312Z,50.866913
2022-09-10T07:36:31.281Z,50.866795
2022-09-10T07:37:31.278Z,50.866680
2022-09-10T07:38:31.276Z,50.866619
2022-09-10T07:39:31.253Z,50.866627
2022-09-10T07:40:31.255Z,50.866650
2022-09-10T07:41:31.251Z,50.866718
2022-09-10T07:42:31.234Z,50.866760
2022-09-10T07:43:31.225Z,50.866772
2022-09-10T07:44:31.221Z,50.866798
2022-09-10T07:45:31.241Z,50.866806
2022-09-10T07:46:31.198Z,50.866821
2022-09-10T07:47:31.189Z,50.866787
2022-09-10T07:48:31.218Z,50.866840
2022-09-10T07:49:31.174Z,50.866791
2022-09-10T07:50:31.171Z,50.866909
2022-09-10T07:51:31.161Z,50.866722
2022-09-10T07:52:31.158Z,50.866810
2022-09-10T07:53:31.654Z,50.866699
2022-09-10T07:54:31.147Z,50.866726
2022-09-10T07:55:31.139Z,50.866814
2022-09-10T07:56:31.131Z,50.866798
2022-09-10T07:57:31.116Z,50.866783
2022-09-10T07:58:32.182Z,50.866791
2022-09-10T07:59:31.100Z,50.866768
2022-09-10T08:00:31.088Z,50.866814
2022-09-10T08:01:31.113Z,50.866817
2022-09-10T08:02:31.095Z,50.866753
2022-09-10T08:03:31.067Z,50.866711
2022-09-10T08:04:35.881Z,50.866707
2022-09-10T08:05:33.047Z,50.866734
2022-09-10T08:06:31.044Z,50.866787
2022-09-10T08:07:31.036Z,50.866745
2022-09-10T08:08:31.032Z,50.866753
2022-09-10T08:09:31.014Z,50.866768
2022-09-10T08:10:31.006Z,50.866745
2022-09-10T08:11:30.998Z,50.866741
2022-09-10T08:12:30.993Z,50.866795
2022-09-10T08:13:30.988Z,50.866795
2022-09-10T08:14:30.973Z,50.866741
2022-09-10T08:15:30.976Z,50.866760
2022-09-10T08:16:30.970Z,50.866745
2022-09-10T08:17:31.039Z,50.866718
2022-09-10T08:18:30.969Z,50.866718
2022-09-10T08:19:30.946Z,50.866707
2022-09-10T08:20:30.938Z,50.866718
2022-09-10T08:21:30.929Z,50.866661
2022-09-10T08:22:30.927Z,50.866669
2022-09-10T08:23:30.904Z,50.866730
2022-09-10T08:24:30.894Z,50.866821
2022-09-10T08:25:30.899Z,50.866837
2022-09-10T08:26:30.883Z,50.866741
2022-09-10T08:27:31.676Z,50.866646
2022-09-10T08:28:30.868Z,50.866718
2022-09-10T08:29:30.855Z,50.866779
2022-09-10T08:30:30.860Z,50.866764
2022-09-10T08:31:30.838Z,50.866840
2022-09-10T08:32:30.845Z,50.866783
2022-09-10T08:33:30.841Z,50.866814
2022-09-10T08:34:30.813Z,50.867020
2022-09-10T08:35:30.815Z,50.867069
2022-09-10T08:36:30.805Z,50.867126
2022-09-10T08:37:30.797Z,50.867012
2022-09-10T08:38:30.791Z,50.867119
2022-09-10T08:39:30.776Z,50.866974
2022-09-10T08:40:30.779Z,50.867004
2022-09-10T08:41:30.764Z,50.866932
2022-09-10T08:42:30.764Z,50.866894
2022-09-10T08:43:30.756Z,50.866688
2022-09-10T08:44:30.741Z,50.866673
2022-09-10T08:45:30.772Z,50.866543
2022-09-10T08:46:30.721Z,50.866623
2022-09-10T08:47:30.739Z,50.866703
2022-09-10T08:48:30.715Z,50.866673
2022-09-10T08:49:30.696Z,50.866760
2022-09-10T08:50:30.692Z,50.866734
2022-09-10T08:51:30.688Z,50.866875
2022-09-10T08:52:30.750Z,50.866844
2022-09-10T08:53:30.666Z,50.866844
2022-09-10T08:54:30.666Z,50.866875
2022-09-10T08:55:30.653Z,50.866917
2022-09-10T08:56:30.675Z,50.866894
2022-09-10T08:57:30.661Z,50.866779
2022-09-10T08:58:30.634Z,50.866760
2022-09-10T08:59:30.622Z,50.866718
2022-09-10T09:00:30.617Z,50.866703
2022-09-10T09:01:30.707Z,50.866673
2022-09-10T09:02:47.832Z,50.866653
2022-09-10T09:03:32.601Z,50.866669
2022-09-10T09:04:30.589Z,50.866631
2022-09-10T09:05:30.575Z,50.866745
2022-09-10T09:06:30.568Z,50.866779
2022-09-10T09:07:30.566Z,50.866852
2022-09-10T09:08:30.563Z,50.866829
2022-09-10T09:09:31.199Z,50.866833
2022-09-10T09:10:30.529Z,50.866802
2022-09-10T09:11:30.537Z,50.866879
2022-09-10T09:12:30.525Z,50.866848
2022-09-10T09:13:30.512Z,50.866825
2022-09-10T09:14:30.503Z,50.866745
2022-09-10T09:15:30.542Z,50.866646
2022-09-10T09:16:30.482Z,50.866722
2022-09-10T09:17:31.499Z,50.866673
2022-09-10T09:18:30.480Z,50.866802
2022-09-10T09:19:30.460Z,50.866959
2022-09-10T09:20:30.458Z,50.866955
2022-09-10T09:21:30.452Z,50.866890
2022-09-10T09:22:30.493Z,50.866764
2022-09-10T09:23:30.435Z,50.866692
2022-09-10T09:24:30.437Z,50.866722
2022-09-10T09:25:30.426Z,50.866707
2022-09-10T09:26:30.418Z,50.866798
2022-09-10T09:27:30.403Z,50.866848
2022-09-10T09:28:30.390Z,50.866882
2022-09-10T09:29:31.110Z,50.866936
2022-09-10T09:30:30.370Z,50.866966
2022-09-10T09:31:30.417Z,50.866932
2022-09-10T09:32:30.393Z,50.866951
2022-09-10T09:33:30.348Z,50.866821
2022-09-10T09:34:31.110Z,50.866741
2022-09-10T09:35:30.332Z,50.866684
2022-09-10T09:36:30.323Z,50.866692
2022-09-10T09:37:30.328Z,50.866848
2022-09-10T09:38:30.311Z,50.866795
2022-09-10T09:39:30.314Z,50.866817
2022-09-10T09:40:30.294Z,50.866810
2022-09-10T09:41:30.289Z,50.866779
2022-09-10T09:42:30.285Z,50.866787
2022-09-10T09:43:30.276Z,50.866787
2022-09-10T09:44:30.264Z,50.866779
2022-09-10T09:45:30.356Z,50.866760
2022-09-10T09:46:30.253Z,50.866791
2022-09-10T09:47:30.344Z,50.866779
2022-09-10T09:48:30.238Z,50.866772
2022-09-10T09:49:30.222Z,50.866692
2022-09-10T09:50:30.208Z,50.866711
2022-09-10T09:51:31.210Z,50.866676
2022-09-10T09:52:30.207Z,50.866714
2022-09-10T09:53:30.203Z,50.866802
2022-09-10T09:55:12.572Z,50.866932
2022-09-10T09:55:32.178Z,50.866890
2022-09-10T09:56:30.196Z,50.866859
2022-09-10T09:57:30.177Z,50.866776
2022-09-10T09:58:30.156Z,50.866688
2022-09-10T09:59:30.149Z,50.866817
2022-09-10T10:00:30.146Z,50.866768
2022-09-10T10:01:30.151Z,50.866848
2022-09-10T10:02:30.156Z,50.866718
2022-09-10T10:03:30.113Z,50.866787
2022-09-10T10:04:30.114Z,50.866802
2022-09-10T10:05:30.102Z,50.866730
2022-09-10T10:06:30.101Z,50.866776
2022-09-10T10:07:30.087Z,50.866791
2022-09-10T10:08:30.085Z,50.866783
2022-09-10T10:09:30.075Z,50.866753
2022-09-10T10:10:30.060Z,50.866756
2022-09-10T10:11:30.065Z,50.866722
2022-09-10T10:12:30.039Z,50.866734
2022-09-10T10:13:30.049Z,50.866753
2022-09-10T10:14:30.029Z,50.866787
2022-09-10T10:15:30.052Z,50.866817
2022-09-10T10:16:30.024Z,50.866730
2022-09-10T10:17:30.053Z,50.866722
2022-09-10T10:18:29.999Z,50.866768
2022-09-10T10:19:30.030Z,50.866753
2022-09-10T10:20:29.980Z,50.866669
2022-09-10T10:21:29.980Z,50.866650
2022-09-10T10:22:29.976Z,50.866650
2022-09-10T10:23:31.209Z,50.866749
2022-09-10T10:24:30.952Z,50.866745
2022-09-10T10:25:29.965Z,50.866653
2022-09-10T10:26:29.954Z,50.866913
2022-09-10T10:27:29.930Z,50.866745
2022-09-10T10:28:29.928Z,50.866783
2022-09-10T10:29:29.911Z,50.866882
2022-09-10T10:30:29.911Z,50.867020
2022-09-10T10:31:29.895Z,50.866806
2022-09-10T10:32:29.888Z,50.866955
2022-09-10T10:33:29.886Z,50.866859
2022-09-10T10:34:29.874Z,50.866810
2022-09-10T10:35:29.918Z,50.866699
2022-09-10T10:36:29.862Z,50.866573
2022-09-10T10:37:29.851Z,50.866688
2022-09-10T10:38:29.841Z,50.866863
2022-09-10T10:39:29.837Z,50.866940
2022-09-10T10:40:29.830Z,50.866711
2022-09-10T10:41:29.837Z,50.866600
2022-09-10T10:42:30.709Z,50.866802
2022-09-10T10:43:29.811Z,50.866745
2022-09-10T10:44:29.797Z,50.866737
2022-09-10T10:45:29.786Z,50.866669
2022-09-10T10:46:29.816Z,50.866489
2022-09-10T10:47:29.773Z,50.866726
2022-09-10T10:48:29.759Z,50.866661
2022-09-10T10:49:29.748Z,50.866695
2022-09-10T10:50:29.740Z,50.866753
2022-09-10T10:51:29.744Z,50.866745
2022-09-10T10:52:29.735Z,50.866764
2022-09-10T10:53:29.723Z,50.867008
2022-09-10T10:54:29.716Z,50.867001
2022-09-10T10:55:29.705Z,50.866894
2022-09-10T10:56:29.710Z,50.866901
2022-09-10T10:57:29.771Z,50.867043
2022-09-10T10:58:29.683Z,50.867100
2022-09-10T10:59:29.693Z,50.867107
2022-09-10T11:00:29.664Z,50.867249
2022-09-10T11:01:29.706Z,50.867382
2022-09-10T11:02:29.684Z,50.866989
2022-09-10T11:03:29.640Z,50.866913
2022-09-10T11:04:29.639Z,50.867085
2022-09-10T11:05:29.630Z,50.867336
2022-09-10T11:06:29.633Z,50.867146
2022-09-10T11:07:29.603Z,50.867088
2022-09-10T11:08:29.598Z,50.866894
2022-09-10T11:09:30.220Z,50.867058
2022-09-10T11:10:29.591Z,50.866970
2022-09-10T11:11:29.586Z,50.866837
2022-09-10T11:12:29.566Z,50.866840
2022-09-10T11:13:30.228Z,50.866898
2022-09-10T11:14:29.574Z,50.866955
2022-09-10T11:15:29.541Z,50.866871
2022-09-10T11:16:29.534Z,50.866814
2022-09-10T11:17:29.531Z,50.866848
2022-09-10T11:18:29.523Z,50.866863
2022-09-10T11:19:29.521Z,50.866913
2022-09-10T11:20:30.265Z,50.866867
2022-09-10T11:21:30.498Z,50.866806
2022-09-10T11:22:29.499Z,50.866955
2022-09-10T11:23:29.479Z,50.866997
2022-09-10T11:24:29.491Z,50.867016
2022-09-10T11:25:29.462Z,50.866875
2022-09-10T11:26:29.459Z,50.866661
2022-09-10T11:27:29.448Z,50.866718
2022-09-10T11:28:29.441Z,50.866768
2022-09-10T11:29:29.446Z,50.866875